Airfield :
LOGIN :

Register | Disclaimer

   EN    FR    IT 

 










Legend :    VFR   Marginal VFR   IFR   Intensive IFR   Very Intensive IFR
Visi :
Ceiling :
>= 8 km
>= 3000ft
5 to 8 km
1000 to 3000 ft
1500m to 5 km
500 to 1000 ft
800 to 1500m
200 to 500 ft
< 800m
< 200 ft
Symbols :   Thunderstorms  Fog  Heavy snow  Heavy precipitations  Wind > 20 kt
SIGMETs :     Misc.  Thunderstorms  Icing  Turbulence  Mountain Waves  Volcanic Ashes






- Airport Elevation : 135 ft
- IATA code : EDI


EGPH - Edinburgh

CURRENT METAR :
  • 280720Z 28005KT 220V320 9999 FEW029 13/06 Q1027

EXPIRED METARs :
  • 280650Z 29005KT 250V320 CAVOK 12/06 Q1027
  • 280620Z 29005KT 250V340 CAVOK 11/06 Q1027
  • 280550Z 24005KT CAVOK 10/06 Q1027
  • 280520Z 24005KT CAVOK 09/06 Q1027
  • 280450Z 25005KT CAVOK 08/06 Q1026

TAF TAF EGPH
Valid from the 28 at 06:00 until the 29 at 06:00 UTC


280457Z 2806/2906 27007KT 9999 FEW030
BECMG 2812/2815 07010KT
BECMG 2901/2903 33005KT
ATIS : +44 131 339 2823



MET'MAP, your aeronautical weather chart ! - Copyright ORBIFLY December 2007 - Disclaimer

ORBIFLY MET'MAP TEAM :

Programming & Development : Alexandra Zaïnal
Original concept : Baudouin d'Aumeries
Technical & hardware support : Manuel Goepfert
Assistance : Marc-Olivier Méhu

Contact : metmap@orbifly.com




SOURCES & CREDITS :

   NOAA